Time;durP1;ratioP1;P1;durP2;ratioP2;P2;SDS_P1;SDS_P2;PMS_P1;PMS_P2;Temp;Humidity;BMP_temperature;BMP_pressure;BME280_temperature;BME280_humidity;BME280_pressure;Samples;Min_cycle;Max_cycle;Signal;HPM_P1;HPM_P2
2022/11/29 00:01:06;;;;;;;19.10;15.40;;;;;;;11.85;63.05;101340.13;4915278;29;20036;-65
2022/11/29 00:03:33;;;;;;;42.35;15.70;;;;;;;11.84;63.34;101332.16;4914874;29;20155;-64
2022/11/29 00:06:08;;;;;;;20.35;14.77;;;;;;;11.80;63.46;101336.91;4911697;29;20067;-64
2022/11/29 00:08:35;;;;;;;21.17;14.90;;;;;;;11.78;63.55;101338.84;4915686;29;20118;-65
2022/11/29 00:11:04;;;;;;;28.13;15.88;;;;;;;11.78;63.62;101334.31;4908083;29;20048;-64
2022/11/29 00:13:30;;;;;;;31.55;17.48;;;;;;;11.76;63.64;101344.28;4911599;29;20045;-64
2022/11/29 00:16:05;;;;;;;22.70;17.02;;;;;;;11.71;63.39;101338.34;4916637;29;20052;-64
2022/11/29 00:18:32;;;;;;;25.70;17.77;;;;;;;11.70;63.77;101339.31;4916064;29;20044;-64
2022/11/29 00:20:59;;;;;;;26.65;18.48;;;;;;;11.72;63.92;101336.53;4915596;29;20311;-64
2022/11/29 00:23:26;;;;;;;33.72;20.17;;;;;;;11.76;63.89;101335.34;4914145;29;20048;-65
2022/11/29 00:25:52;;;;;;;35.05;20.25;;;;;;;11.76;64.13;101338.91;4884975;29;20048;-65
2022/11/29 00:28:19;;;;;;;39.05;20.73;;;;;;;11.79;63.68;101340.56;4916288;29;20048;-64
2022/11/29 00:30:46;;;;;;;32.67;20.35;;;;;;;11.84;63.73;101337.56;4916430;29;20103;-65
2022/11/29 00:33:12;;;;;;;29.63;20.38;;;;;;;11.87;63.98;101334.66;4898258;29;20491;-65
2022/11/29 00:35:39;;;;;;;36.47;21.42;;;;;;;11.91;64.05;101339.75;4898901;29;20067;-64
2022/11/29 00:38:05;;;;;;;34.25;21.98;;;;;;;11.93;63.95;101340.50;4918026;29;20048;-65
2022/11/29 00:40:32;;;;;;;33.55;22.08;;;;;;;11.94;63.87;101338.69;4909567;29;20035;-65
2022/11/29 00:43:00;;;;;;;38.53;23.10;;;;;;;11.96;63.73;101347.50;4900865;29;20048;-64
2022/11/29 00:45:27;;;;;;;43.95;25.38;;;;;;;11.96;63.73;101344.81;4901909;29;20052;-64
2022/11/29 00:47:53;;;;;;;40.72;24.02;;;;;;;11.97;63.71;101336.63;4918225;29;20044;-64
2022/11/29 00:50:20;;;;;;;35.97;21.70;;;;;;;11.99;64.01;101341.91;4918432;29;20059;-65
2022/11/29 00:52:46;;;;;;;33.45;22.83;;;;;;;11.99;63.41;101339.22;4911648;29;20400;-65
2022/11/29 00:55:13;;;;;;;42.30;24.08;;;;;;;11.99;63.94;101342.78;4900659;29;20052;-64
2022/11/29 00:57:40;;;;;;;45.13;20.58;;;;;;;11.99;63.58;101337.38;4901887;29;20107;-66
2022/11/29 01:00:07;;;;;;;40.63;22.75;;;;;;;11.98;63.78;101346.44;4919165;29;20386;-64
2022/11/29 01:02:36;;;;;;;42.00;23.23;;;;;;;11.97;63.73;101349.22;4915731;29;20083;-66
2022/11/29 01:05:03;;;;;;;36.85;20.95;;;;;;;11.97;63.72;101344.72;4907491;29;20051;-65
2022/11/29 01:07:29;;;;;;;34.45;21.60;;;;;;;11.97;63.91;101344.72;4901057;29;20104;-65
2022/11/29 01:09:56;;;;;;;32.22;21.92;;;;;;;11.97;63.57;101346.53;4900755;29;20555;-65
2022/11/29 01:12:22;;;;;;;43.42;26.70;;;;;;;11.97;63.59;101344.72;4915792;29;20059;-65
2022/11/29 01:14:49;;;;;;;49.22;28.55;;;;;;;11.98;63.35;101337.50;4905180;29;20064;-65
2022/11/29 01:17:15;;;;;;;53.58;29.65;;;;;;;11.98;63.83;101343.75;4904271;29;20443;-65
2022/11/29 01:19:42;;;;;;;36.00;24.92;;;;;;;11.99;63.75;101341.91;4918148;29;20048;-65
2022/11/29 01:22:16;;;;;;;40.67;25.63;;;;;;;11.98;63.67;101348.25;4917966;29;20041;-65
2022/11/29 01:24:42;;;;;;;49.05;28.95;;;;;;;11.96;63.50;101350.19;4901667;29;20070;-64
2022/11/29 01:27:09;;;;;;;41.83;26.05;;;;;;;11.95;63.53;101348.47;4919214;29;20048;-64
2022/11/29 01:29:36;;;;;;;34.97;22.33;;;;;;;11.95;63.55;101354.72;4919062;29;20040;-65
2022/11/29 01:32:03;;;;;;;26.98;19.83;;;;;;;11.93;63.78;101348.56;4901910;29;20055;-64
2022/11/29 01:34:29;;;;;;;56.05;24.10;;;;;;;11.92;63.54;101349.53;4904357;29;20467;-65
2022/11/29 01:36:56;;;;;;;42.83;23.15;;;;;;;11.90;63.60;101351.47;4912270;29;20040;-65
2022/11/29 01:39:22;;;;;;;32.45;20.48;;;;;;;11.90;63.17;101350.63;4892362;29;20049;-65
2022/11/29 01:41:49;;;;;;;29.77;21.02;;;;;;;11.88;63.69;101349.81;4882516;29;20522;-64
2022/11/29 01:44:15;;;;;;;37.33;24.50;;;;;;;11.87;63.35;101354.34;4917755;29;20111;-64
2022/11/29 01:46:44;;;;;;;53.10;28.73;;;;;;;11.86;63.18;101349.06;4916192;29;20092;-64
2022/11/29 01:49:16;;;;;;;36.97;25.45;;;;;;;11.84;63.60;101359.09;4902615;29;20526;-64
2022/11/29 01:51:49;;;;;;;38.78;25.77;;;;;;;11.83;63.38;101363.59;4921675;29;20068;-64
2022/11/29 01:54:16;;;;;;;38.45;26.60;;;;;;;11.83;63.57;101358.22;4918337;29;20044;-65
2022/11/29 01:56:46;;;;;;;39.63;25.95;;;;;;;11.81;63.32;101367.38;4917531;29;20060;-64
2022/11/29 01:59:17;;;;;;;37.22;24.63;;;;;;;11.79;63.47;101375.53;4934268;29;20075;-65
2022/11/29 02:01:44;;;;;;;35.53;23.67;;;;;;;11.78;63.51;101365.75;4908975;29;20044;-64
2022/11/29 02:04:11;;;;;;;34.97;22.98;;;;;;;11.76;63.01;101370.34;4918566;29;20054;-64
2022/11/29 02:06:38;;;;;;;32.42;22.75;;;;;;;11.73;63.31;101370.53;4916884;29;20056;-64
2022/11/29 02:09:18;;;;;;;67.43;32.75;;;;;;;11.71;63.27;101377.84;4915921;29;20417;-65
2022/11/29 02:12:02;;;;;;;41.08;26.10;;;;;;;11.68;63.20;101370.84;4887064;29;20048;-64
2022/11/29 02:15:05;;;;;;;39.35;25.85;;;;;;;11.64;63.05;101368.47;4917439;29;20048;-65
2022/11/29 02:17:57;;;;;;;42.25;24.60;;;;;;;11.64;63.23;101371.16;4913596;29;20059;-66
2022/11/29 02:21:02;;;;;;;53.08;24.67;;;;;;;11.61;63.26;101374.06;4917454;29;20100;-64
2022/11/29 02:23:38;;;;;;;84.25;27.88;;;;;;;11.59;63.42;101370.59;4906008;29;20052;-65
2022/11/29 02:26:35;;;;;;;71.50;25.67;;;;;;;11.54;63.45;101378.13;4900694;29;20056;-65
2022/11/29 02:29:08;;;;;;;79.63;26.83;;;;;;;11.52;63.10;101382.75;4885015;29;20040;-64
2022/11/29 02:31:56;;;;;;;50.45;22.92;;;;;;;11.48;63.24;101384.78;4915990;29;20084;-64
2022/11/29 02:34:50;;;;;;;29.75;20.70;;;;;;;11.44;63.10;101386.81;4922008;29;20051;-64
2022/11/29 02:37:27;;;;;;;43.65;22.27;;;;;;;11.42;63.23;101395.94;4916777;29;20442;-64
2022/11/29 02:40:29;;;;;;;34.15;19.90;;;;;;;11.37;63.48;101392.69;4913494;29;20392;-64
2022/11/29 02:43:16;;;;;;;32.47;19.52;;;;;;;11.33;63.38;101394.72;4876290;29;20441;-65
2022/11/29 02:46:13;;;;;;;25.30;19.00;;;;;;;11.29;63.40;101398.56;4908546;29;20048;-64
2022/11/29 02:49:01;;;;;;;38.47;21.05;;;;;;;11.26;63.19;101398.78;4917845;29;20040;-65
2022/11/29 02:51:45;;;;;;;29.15;20.65;;;;;;;11.26;63.46;101395.22;4917748;29;20040;-64
2022/11/29 02:54:22;;;;;;;32.13;21.77;;;;;;;11.26;63.21;101396.09;4911721;29;20040;-65
2022/11/29 02:57:00;;;;;;;26.00;19.65;;;;;;;11.26;63.38;101401.47;4932337;29;20040;-64
2022/11/29 02:59:59;;;;;;;25.52;19.95;;;;;;;11.29;63.48;101406.63;4900861;29;20055;-64
2022/11/29 03:02:47;;;;;;;33.45;21.88;;;;;;;11.31;63.47;101402.03;4849794;29;20088;-64
2022/11/29 03:05:19;;;;;;;25.27;19.75;;;;;;;11.32;63.32;101403.75;4917465;29;20052;-64
2022/11/29 03:07:52;;;;;;;31.13;22.40;;;;;;;11.32;63.55;101403.75;4917493;29;20095;-65
2022/11/29 03:10:21;;;;;;;77.60;24.48;;;;;;;11.35;63.62;101408.91;4913412;29;20130;-64
2022/11/29 03:12:52;;;;;;;90.55;28.65;;;;;;;11.32;63.44;101408.25;4919423;29;20447;-65
2022/11/29 03:15:18;;;;;;;29.38;20.40;;;;;;;11.29;63.46;101403.94;4919116;29;20115;-65
2022/11/29 03:18:26;;;;;;;29.30;21.70;;;;;;;11.30;63.62;101410.19;4919374;29;20085;-64
2022/11/29 03:21:08;;;;;;;26.10;21.20;;;;;;;11.33;63.23;101415.38;4823082;29;20060;-63
2022/11/29 03:23:45;;;;;;;27.63;21.63;;;;;;;11.33;63.48;101424.28;4874180;29;20067;-64
2022/11/29 03:26:31;;;;;;;37.42;24.05;;;;;;;11.35;63.68;101421.50;4898256;29;20104;-64
2022/11/29 03:29:34;;;;;;;31.88;22.75;;;;;;;11.38;63.46;101430.25;4898179;29;20531;-64
2022/11/29 03:32:05;;;;;;;25.63;21.52;;;;;;;11.41;63.60;101426.47;4897929;29;20423;-64
2022/11/29 03:34:53;;;;;;;25.63;21.17;;;;;;;11.42;63.67;101439.84;4897834;29;20596;-64
2022/11/29 03:37:31;;;;;;;26.15;20.40;;;;;;;11.46;63.67;101437.81;4900000;29;20591;-64
2022/11/29 03:40:30;;;;;;;26.50;22.23;;;;;;;11.48;63.91;101438.56;4917016;29;20054;-64
2022/11/29 03:43:13;;;;;;;26.55;20.48;;;;;;;11.53;63.79;101443.66;4834521;29;20111;-65
2022/11/29 03:46:06;;;;;;;24.10;19.73;;;;;;;11.56;64.12;101441.63;4899514;29;20040;-64
2022/11/29 03:48:47;;;;;;;28.95;21.35;;;;;;;11.59;63.62;101445.94;4916606;29;20060;-64
2022/11/29 03:51:53;;;;;;;24.75;20.83;;;;;;;11.59;63.77;101449.47;4920617;29;20040;-64
2022/11/29 03:55:01;;;;;;;130.52;37.75;;;;;;;11.62;63.53;101454.66;4918794;29;20055;-65
2022/11/29 03:57:38;;;;;;;45.95;23.00;;;;;;;11.59;63.80;101448.63;4916348;29;20070;-64
2022/11/29 04:00:08;;;;;;;27.75;22.30;;;;;;;11.56;63.61;101464.97;4916921;29;20056;-65
2022/11/29 04:02:52;;;;;;;77.28;26.80;;;;;;;11.56;63.75;101460.44;4901389;29;20044;-64
2022/11/29 04:05:37;;;;;;;209.52;55.42;;;;;;;11.50;63.62;101462.69;4899707;29;20060;-65
2022/11/29 04:08:16;;;;;;;33.15;24.33;;;;;;;11.48;63.95;101472.66;4916989;29;20108;-65
2022/11/29 04:11:04;;;;;;;80.90;27.02;;;;;;;11.46;64.22;101473.63;4884707;29;20056;-64
2022/11/29 04:14:05;;;;;;;36.40;23.95;;;;;;;11.46;64.19;101470.94;4884005;29;20197;-64
2022/11/29 04:16:50;;;;;;;33.30;23.75;;;;;;;11.52;64.32;101493.03;4901626;29;20049;-65
2022/11/29 04:19:44;;;;;;;51.28;27.00;;;;;;;11.54;64.23;101477.66;4869250;29;20397;-64
2022/11/29 04:22:23;;;;;;;38.15;23.80;;;;;;;11.56;63.89;101481.09;4912820;29;20542;-65
2022/11/29 04:25:30;;;;;;;56.00;26.50;;;;;;;11.54;64.07;101475.81;4887874;29;20052;-64
2022/11/29 04:28:40;;;;;;;70.30;25.25;;;;;;;11.54;64.34;101472.28;4903549;29;20048;-64
2022/11/29 04:31:27;;;;;;;44.80;24.88;;;;;;;11.55;64.19;101479.38;4926359;29;20086;-64
2022/11/29 04:34:24;;;;;;;31.27;23.65;;;;;;;11.54;64.31;101478.50;4928236;29;20044;-65
2022/11/29 04:37:01;;;;;;;36.03;24.75;;;;;;;11.57;64.30;101480.13;4936559;29;20064;-65
2022/11/29 04:39:49;;;;;;;55.80;30.20;;;;;;;11.58;64.24;101482.72;4921922;29;20052;-65
2022/11/29 04:42:15;;;;;;;51.15;25.88;;;;;;;11.63;64.23;101490.50;4921871;29;20055;-64
2022/11/29 04:45:06;;;;;;;38.70;25.73;;;;;;;11.63;64.38;101485.13;4939077;29;20483;-65
2022/11/29 04:47:42;;;;;;;53.85;29.77;;;;;;;11.66;64.33;101490.31;4884485;29;20062;-65
2022/11/29 04:50:40;;;;;;;44.95;26.88;;;;;;;11.66;64.31;101495.69;4884112;29;20064;-64
2022/11/29 04:53:30;;;;;;;52.85;28.88;;;;;;;11.69;64.46;101493.66;4884149;29;20048;-64
2022/11/29 04:56:13;;;;;;;55.40;28.88;;;;;;;11.70;64.22;101498.06;4900811;29;20045;-65
2022/11/29 04:58:50;;;;;;;62.50;32.40;;;;;;;11.70;64.06;101500.75;4911894;29;20506;-65
2022/11/29 05:01:45;;;;;;;75.53;34.35;;;;;;;11.70;64.16;101505.28;4919735;29;20040;-65
2022/11/29 05:04:45;;;;;;;63.03;31.10;;;;;;;11.72;64.40;101514.97;4902675;29;20052;-65
2022/11/29 05:07:23;;;;;;;80.72;30.27;;;;;;;11.73;64.37;101514.00;4907155;29;20067;-65
2022/11/29 05:09:58;;;;;;;52.42;28.60;;;;;;;11.71;64.12;101513.25;4900764;29;20044;-64
2022/11/29 05:12:46;;;;;;;66.85;30.50;;;;;;;11.71;64.59;101518.63;4883665;29;20567;-65
2022/11/29 05:15:34;;;;;;;61.53;27.65;;;;;;;11.72;64.27;101522.19;4900514;29;20096;-65
2022/11/29 05:18:33;;;;;;;103.45;39.05;;;;;;;11.70;64.35;101524.97;4935786;29;20043;-65
2022/11/29 05:21:12;;;;;;;118.72;36.05;;;;;;;11.70;64.56;101530.34;4938244;29;20517;-64
2022/11/29 05:23:45;;;;;;;46.15;27.42;;;;;;;11.67;64.21;101537.78;4937433;29;20387;-65
2022/11/29 05:26:21;;;;;;;71.60;29.05;;;;;;;11.66;64.71;101533.34;4889253;29;20063;-64
2022/11/29 05:29:09;;;;;;;73.07;30.55;;;;;;;11.63;64.71;101537.09;4919262;29;20040;-65
2022/11/29 05:32:08;;;;;;;68.30;30.63;;;;;;;11.64;64.78;101535.28;4919039;29;20072;-66
2022/11/29 05:35:01;;;;;;;75.53;28.45;;;;;;;11.68;64.78;101536.81;4919088;29;20044;-65
2022/11/29 05:37:42;;;;;;;78.88;34.10;;;;;;;11.70;64.79;101545.63;4919131;29;20084;-65
2022/11/29 05:40:12;;;;;;;47.95;27.60;;;;;;;11.73;64.39;101537.38;4901853;29;20051;-65
2022/11/29 05:43:16;;;;;;;85.20;33.22;;;;;;;11.73;64.83;101546.31;4901750;29;20048;-65
2022/11/29 05:45:56;;;;;;;101.85;32.35;;;;;;;11.72;64.56;101547.28;4886312;29;20518;-65
2022/11/29 05:48:32;;;;;;;73.93;34.30;;;;;;;11.72;64.65;101551.78;4918215;29;20056;-65
2022/11/29 05:51:26;;;;;;;82.10;35.33;;;;;;;11.73;64.68;101564.28;4918715;29;20518;-64
2022/11/29 05:54:05;;;;;;;105.13;32.63;;;;;;;11.76;64.94;101564.94;4900659;29;20059;-65
2022/11/29 05:56:52;;;;;;;50.38;28.13;;;;;;;11.78;64.64;101563.06;4918667;29;20052;-65
2022/11/29 05:59:26;;;;;;;62.42;29.95;;;;;;;11.81;64.65;101570.06;4918785;29;20095;-65
2022/11/29 06:02:01;;;;;;;209.23;46.88;;;;;;;11.83;64.59;101572.66;4918547;29;20491;-65
2022/11/29 06:04:56;;;;;;;141.00;43.97;;;;;;;11.79;64.47;101577.38;4917879;29;20048;-65
2022/11/29 06:07:37;;;;;;;93.75;37.58;;;;;;;11.82;65.01;101576.31;4918461;29;20063;-65
2022/11/29 06:10:28;;;;;;;115.35;41.28;;;;;;;11.77;64.82;101585.53;4901254;29;20113;-66
2022/11/29 06:13:00;;;;;;;78.80;35.65;;;;;;;11.75;64.93;101581.19;4913363;29;20044;-64
2022/11/29 06:15:56;;;;;;;64.65;31.63;;;;;;;11.78;65.02;101581.88;4867013;29;20049;-65
2022/11/29 06:18:32;;;;;;;88.00;38.92;;;;;;;11.84;65.03;101588.69;4914856;29;20040;-65
2022/11/29 06:21:21;;;;;;;86.22;36.88;;;;;;;11.85;64.75;101587.75;4918374;29;20050;-65
2022/11/29 06:23:48;;;;;;;81.95;35.55;;;;;;;11.88;64.78;101583.97;4917957;29;20052;-64
2022/11/29 06:26:23;;;;;;;121.55;43.00;;;;;;;11.89;65.03;101596.47;4917202;29;20515;-64
2022/11/29 06:29:11;;;;;;;100.68;37.80;;;;;;;11.90;64.85;101596.41;4917202;29;20063;-65
2022/11/29 06:31:45;;;;;;;75.18;33.22;;;;;;;11.91;65.15;101597.28;4900835;29;20195;-64
2022/11/29 06:34:54;;;;;;;86.32;34.50;;;;;;;11.92;65.02;101605.25;4900678;29;20499;-66
2022/11/29 06:37:40;;;;;;;88.22;35.83;;;;;;;11.91;64.61;101603.53;4825849;29;20058;-65
2022/11/29 06:40:11;;;;;;;96.15;36.78;;;;;;;11.88;65.15;101606.38;4896153;29;20047;-65
2022/11/29 06:42:37;;;;;;;108.95;39.00;;;;;;;11.86;64.96;101615.50;4917494;29;20052;-65
2022/11/29 06:45:04;;;;;;;88.10;34.75;;;;;;;11.84;65.02;101620.13;4900587;29;20052;-66
2022/11/29 06:47:45;;;;;;;96.70;37.47;;;;;;;11.86;64.90;101616.38;4917820;29;20063;-65
2022/11/29 06:50:33;;;;;;;83.40;31.92;;;;;;;11.90;64.89;101619.78;4900803;29;20487;-65
2022/11/29 06:53:38;;;;;;;80.07;32.80;;;;;;;11.92;64.75;101621.41;4900395;29;20638;-65
2022/11/29 06:56:25;;;;;;;71.47;30.98;;;;;;;11.96;65.00;101633.69;4917293;29;20048;-65
2022/11/29 06:59:05;;;;;;;75.85;32.28;;;;;;;11.99;64.85;101636.19;4899517;29;20100;-64
2022/11/29 07:01:38;;;;;;;68.43;32.03;;;;;;;12.01;65.19;101641.47;4917019;29;20112;-65
2022/11/29 07:04:32;;;;;;;87.18;34.15;;;;;;;12.03;65.11;101644.94;4900432;29;20040;-65
2022/11/29 07:06:59;;;;;;;96.32;36.25;;;;;;;12.06;65.11;101642.03;4936517;29;20040;-65
2022/11/29 07:09:32;;;;;;;96.10;36.92;;;;;;;12.06;65.16;101647.44;4936317;29;20052;-64
2022/11/29 07:11:59;;;;;;;112.68;38.03;;;;;;;12.06;64.85;101653.69;4906866;29;20056;-65
2022/11/29 07:14:26;;;;;;;92.93;35.20;;;;;;;12.03;64.69;101655.72;4931055;29;20157;-65
2022/11/29 07:17:19;;;;;;;102.75;36.35;;;;;;;12.03;65.30;101643.13;4936126;29;20058;-66
2022/11/29 07:20:08;;;;;;;86.75;33.53;;;;;;;12.04;65.22;101652.91;4936394;29;20036;-64
2022/11/29 07:22:48;;;;;;;89.68;34.60;;;;;;;12.07;64.82;101659.94;4899234;29;20040;-64
2022/11/29 07:25:30;;;;;;;139.80;41.28;;;;;;;12.08;64.91;101659.84;4898245;29;20040;-65
2022/11/29 07:28:18;;;;;;;110.63;37.33;;;;;;;12.08;64.91;101662.53;4881439;29;20052;-67
2022/11/29 07:31:06;;;;;;;77.30;31.48;;;;;;;12.09;64.91;101666.09;4881642;29;20063;-65
2022/11/29 07:33:57;;;;;;;107.50;37.08;;;;;;;12.09;64.89;101669.63;4881272;29;20499;-65
2022/11/29 07:36:27;;;;;;;100.93;34.13;;;;;;;12.08;64.76;101673.28;4914083;29;20044;-64
2022/11/29 07:39:06;;;;;;;98.32;34.95;;;;;;;12.06;64.82;101680.59;4900252;29;20048;-64
2022/11/29 07:41:43;;;;;;;109.82;35.08;;;;;;;12.07;65.08;101685.03;4917012;29;20052;-65
2022/11/29 07:44:34;;;;;;;83.78;31.83;;;;;;;12.07;64.83;101686.84;4900165;29;20087;-64
2022/11/29 07:47:00;;;;;;;103.75;34.45;;;;;;;12.06;64.96;101682.44;4922696;29;20487;-64
2022/11/29 07:49:31;;;;;;;83.57;31.38;;;;;;;12.04;65.07;101687.06;4931030;29;20495;-66
2022/11/29 07:51:58;;;;;;;92.50;34.05;;;;;;;12.01;64.89;101682.72;4921495;29;20040;-65
2022/11/29 07:54:24;;;;;;;82.93;32.42;;;;;;;12.03;65.24;101680.81;4903997;29;20052;-64
2022/11/29 07:56:51;;;;;;;88.38;32.33;;;;;;;12.04;65.04;101682.53;4921009;29;20052;-65
2022/11/29 07:59:17;;;;;;;106.30;35.97;;;;;;;12.06;64.90;101686.00;4917267;29;20045;-65
2022/11/29 08:01:45;;;;;;;75.53;33.85;;;;;;;12.04;65.10;101681.66;4907682;29;20046;-64
2022/11/29 08:04:12;;;;;;;113.13;37.53;;;;;;;12.04;64.91;101685.22;4920553;29;20044;-65
2022/11/29 08:06:39;;;;;;;95.75;33.88;;;;;;;12.02;65.03;101684.47;4920473;29;20407;-64
2022/11/29 08:09:06;;;;;;;75.97;31.27;;;;;;;12.01;65.27;101681.88;4920585;29;20048;-64
2022/11/29 08:11:33;;;;;;;84.63;32.17;;;;;;;12.02;65.02;101691.66;4920520;29;20048;-64
2022/11/29 08:14:01;;;;;;;76.00;30.02;;;;;;;12.00;65.06;101688.22;4920064;29;20044;-64
2022/11/29 08:16:28;;;;;;;79.18;30.40;;;;;;;11.98;64.96;101691.00;4920189;29;20051;-65
2022/11/29 08:18:54;;;;;;;104.35;36.58;;;;;;;11.96;65.08;101686.69;4920387;29;20108;-64
2022/11/29 08:21:21;;;;;;;87.75;30.20;;;;;;;11.96;65.29;101697.44;4920310;29;20048;-63
2022/11/29 08:23:49;;;;;;;103.10;35.05;;;;;;;11.94;65.41;101691.28;4919931;29;20059;-64
2022/11/29 08:26:17;;;;;;;80.82;31.90;;;;;;;11.93;65.15;101693.13;4918730;29;20495;-64
2022/11/29 08:28:44;;;;;;;76.05;31.15;;;;;;;11.95;65.24;101693.03;4901670;29;20502;-64
2022/11/29 08:31:12;;;;;;;74.50;30.52;;;;;;;11.97;65.14;101696.47;4918686;29;20036;-64
2022/11/29 08:33:41;;;;;;;83.35;32.33;;;;;;;11.98;65.52;101699.06;4918623;29;20490;-64
2022/11/29 08:36:19;;;;;;;120.15;37.78;;;;;;;12.03;65.46;101704.16;4918122;29;20056;-64
2022/11/29 08:38:46;;;;;;;82.05;32.45;;;;;;;12.04;65.44;101705.91;4918583;29;20554;-64
2022/11/29 08:41:15;;;;;;;90.40;34.22;;;;;;;12.02;65.40;101711.38;4919841;29;20063;-64
2022/11/29 08:43:42;;;;;;;90.07;35.13;;;;;;;12.04;65.34;101720.22;4919640;29;20048;-65
2022/11/29 08:46:09;;;;;;;76.40;31.52;;;;;;;12.06;65.15;101722.81;4918373;29;20048;-66
2022/11/29 08:48:52;;;;;;;87.63;33.75;;;;;;;12.06;65.03;101723.69;4913990;29;20068;-67
2022/11/29 08:51:20;;;;;;;124.85;38.53;;;;;;;12.06;65.14;101731.75;4911339;29;20044;-66
2022/11/29 08:53:50;;;;;;;125.55;40.55;;;;;;;12.07;65.21;101729.94;4900825;29;20041;-66
2022/11/29 08:56:18;;;;;;;89.97;33.03;;;;;;;12.06;65.19;101730.91;4905226;29;20048;-65
2022/11/29 08:59:04;;;;;;;101.03;34.30;;;;;;;12.05;65.01;101743.50;4938254;29;20048;-66
2022/11/29 09:01:31;;;;;;;74.80;29.23;;;;;;;12.04;65.06;101740.91;4938874;29;20047;-64
2022/11/29 09:03:58;;;;;;;102.43;35.28;;;;;;;12.03;65.25;101756.19;4928546;29;20529;-66
2022/11/29 09:06:26;;;;;;;108.00;36.78;;;;;;;12.01;65.17;101743.78;4938536;29;20040;-66
2022/11/29 09:08:55;;;;;;;78.82;29.27;;;;;;;12.03;65.45;101753.50;4938489;29;20043;-65
2022/11/29 09:11:23;;;;;;;77.57;28.95;;;;;;;12.03;65.53;101756.19;4938299;29;20406;-66
2022/11/29 09:13:53;;;;;;;98.10;31.55;;;;;;;12.05;65.49;101753.41;4933939;29;20052;-65
2022/11/29 09:16:22;;;;;;;78.63;29.27;;;;;;;12.05;65.37;101754.25;4919004;29;20106;-67
2022/11/29 09:18:51;;;;;;;85.78;29.42;;;;;;;12.07;65.22;101763.09;4919506;29;20043;-66
2022/11/29 09:21:17;;;;;;;70.95;25.85;;;;;;;12.10;65.22;101770.13;4919705;29;20051;-63
2022/11/29 09:23:45;;;;;;;99.78;31.85;;;;;;;12.10;65.31;101762.06;4918989;29;20040;-65
2022/11/29 09:26:17;;;;;;;76.55;29.05;;;;;;;12.10;65.57;101764.75;4918638;29;20071;-65
2022/11/29 09:28:45;;;;;;;72.82;27.50;;;;;;;12.08;65.48;101770.22;4919574;29;20048;-66
2022/11/29 09:31:14;;;;;;;64.90;26.27;;;;;;;12.09;65.28;101773.78;4918943;29;20063;-66
2022/11/29 09:33:41;;;;;;;80.25;28.38;;;;;;;12.08;65.57;101775.59;4919106;29;20048;-66
2022/11/29 09:36:10;;;;;;;71.72;26.08;;;;;;;12.08;65.45;101781.00;4922980;29;20044;-65
2022/11/29 09:38:37;;;;;;;60.60;24.77;;;;;;;12.08;65.46;101781.00;4934336;29;20044;-66
2022/11/29 09:41:22;;;;;;;63.42;24.75;;;;;;;12.08;65.62;101788.22;4919010;29;20048;-65
2022/11/29 09:44:01;;;;;;;74.18;26.55;;;;;;;12.09;65.60;101795.31;4918758;29;20048;-65
2022/11/29 09:46:44;;;;;;;60.22;24.00;;;;;;;12.07;65.32;101784.66;4913633;29;20388;-65
2022/11/29 09:49:54;;;;;;;66.65;25.77;;;;;;;12.08;65.54;101789.06;4938227;29;20055;-65
2022/11/29 09:52:42;;;;;;;61.88;24.92;;;;;;;12.11;65.53;101795.22;4937646;29;20050;-66
2022/11/29 09:55:33;;;;;;;69.00;25.33;;;;;;;12.12;65.65;101792.44;4937773;29;20410;-65
2022/11/29 09:58:02;;;;;;;76.60;27.30;;;;;;;12.13;65.51;101794.16;4937607;29;20051;-65
2022/11/29 10:00:34;;;;;;;97.32;29.95;;;;;;;12.14;65.40;101787.81;4937619;29;20075;-65
2022/11/29 10:03:11;;;;;;;70.93;27.88;;;;;;;12.18;65.30;101799.28;4937678;29;20107;-65
2022/11/29 10:05:45;;;;;;;70.53;26.88;;;;;;;12.22;65.62;101798.13;4937610;29;20122;-65
2022/11/29 10:08:25;;;;;;;77.68;27.85;;;;;;;12.23;65.48;101805.22;4937511;29;20048;-65
2022/11/29 10:11:32;;;;;;;69.93;24.42;;;;;;;12.23;65.75;101805.22;4920235;29;20051;-65
2022/11/29 10:14:21;;;;;;;55.72;21.75;;;;;;;12.27;65.40;101806.78;4877978;29;20056;-65
2022/11/29 10:17:07;;;;;;;59.33;22.10;;;;;;;12.27;65.68;101802.25;4918439;29;20048;-65
2022/11/29 10:19:46;;;;;;;43.65;20.20;;;;;;;12.29;65.25;101800.31;4918250;29;20040;-64
2022/11/29 10:22:17;;;;;;;53.35;20.83;;;;;;;12.31;65.72;101808.31;4901049;29;20182;-63
2022/11/29 10:24:48;;;;;;;49.35;20.77;;;;;;;12.31;65.49;101800.22;4917801;29;20040;-64
2022/11/29 10:27:21;;;;;;;53.80;21.35;;;;;;;12.30;65.57;101802.06;4918191;29;20455;-64
2022/11/29 10:29:50;;;;;;;51.25;22.85;;;;;;;12.32;65.48;101804.66;4901421;29;20045;-65
2022/11/29 10:32:20;;;;;;;54.00;21.90;;;;;;;12.35;65.49;101794.53;4917637;29;20050;-64
2022/11/29 10:34:48;;;;;;;53.42;21.60;;;;;;;12.36;65.39;101798.97;4899137;29;20504;-65
2022/11/29 10:37:19;;;;;;;52.08;22.25;;;;;;;12.37;65.71;101797.16;4905015;29;20103;-64
2022/11/29 10:39:57;;;;;;;52.65;22.00;;;;;;;12.40;65.46;101791.56;4882937;29;20055;-64
2022/11/29 10:45:23;;;;;;;41.50;20.70;;;;;;;12.42;65.44;101784.25;4897584;29;20117;-64
2022/11/29 10:47:52;;;;;;;52.22;23.35;;;;;;;12.43;65.63;101794.06;4898986;29;20041;-64
2022/11/29 10:50:24;;;;;;;55.42;23.27;;;;;;;12.45;65.62;101788.56;4882323;29;20045;-65
2022/11/29 10:52:54;;;;;;;47.50;22.25;;;;;;;12.43;65.46;101794.06;4893740;29;20456;-65
2022/11/29 10:55:29;;;;;;;47.45;22.95;;;;;;;12.43;65.54;101780.59;4917017;29;20064;-65
2022/11/29 10:58:14;;;;;;;52.75;22.73;;;;;;;12.40;65.64;101792.44;4917637;29;20052;-64
2022/11/29 11:00:48;;;;;;;43.25;21.52;;;;;;;12.41;65.28;101791.47;4917554;29;20036;-64
2022/11/29 11:03:41;;;;;;;47.83;22.43;;;;;;;12.40;65.34;101792.44;4916883;29;20055;-64
2022/11/29 11:06:16;;;;;;;54.55;23.55;;;;;;;12.40;65.62;101792.44;4898540;29;20036;-66
2022/11/29 11:08:47;;;;;;;48.67;23.53;;;;;;;12.41;65.46;101791.47;4866555;29;20049;-66
2022/11/29 11:11:23;;;;;;;61.05;23.05;;;;;;;12.45;65.50;101789.44;4866322;29;20052;-66
2022/11/29 11:14:04;;;;;;;43.60;23.30;;;;;;;12.47;65.33;101787.50;4909561;29;20040;-65
2022/11/29 11:16:31;;;;;;;70.05;26.40;;;;;;;12.49;65.01;101792.81;4917060;29;20052;-65
2022/11/29 11:19:24;;;;;;;59.20;23.83;;;;;;;12.47;65.18;101792.91;4900088;29;20076;-66
2022/11/29 11:21:51;;;;;;;85.55;27.98;;;;;;;12.46;65.32;101793.88;4916425;29;20044;-65
2022/11/29 11:24:27;;;;;;;46.85;23.25;;;;;;;12.46;65.29;101798.38;4900229;29;20068;-65
2022/11/29 11:26:55;;;;;;;48.83;22.52;;;;;;;12.48;65.33;101802.72;4916662;29;20112;-65
2022/11/29 11:29:32;;;;;;;58.97;25.05;;;;;;;12.50;65.25;101808.88;4917041;29;20052;-66
2022/11/29 11:31:59;;;;;;;45.40;21.98;;;;;;;12.52;65.22;101803.38;4900285;29;20075;-66
2022/11/29 11:34:26;;;;;;;48.38;21.85;;;;;;;12.50;65.16;101806.19;4916838;29;20044;-67
2022/11/29 11:37:13;;;;;;;56.20;23.27;;;;;;;12.52;65.12;101809.63;4916073;29;20052;-67
2022/11/29 11:39:41;;;;;;;64.13;23.73;;;;;;;12.52;65.04;101806.06;4916906;29;20044;-66
2022/11/29 11:45:00;;;;;;;49.15;21.92;;;;;;;12.49;65.37;101815.22;4917292;29;20395;-65
2022/11/29 11:47:31;;;;;;;45.22;21.48;;;;;;;12.47;65.24;101821.66;4914704;29;20051;-65
2022/11/29 11:50:01;;;;;;;45.50;21.05;;;;;;;12.46;65.15;101825.31;4900163;29;20103;-65
2022/11/29 11:52:51;;;;;;;37.08;18.50;;;;;;;12.44;65.33;101820.03;4916814;29;20041;-64
2022/11/29 11:55:20;;;;;;;55.78;21.60;;;;;;;12.43;65.20;101823.69;4916456;29;20513;-65
2022/11/29 11:58:03;;;;;;;38.65;19.73;;;;;;;12.40;65.49;101818.50;4914774;29;20048;-65
2022/11/29 12:00:56;;;;;;;37.05;18.45;;;;;;;12.44;65.16;101832.63;4916790;29;20121;-65